Time;durP1;ratioP1;P1;durP2;ratioP2;P2;SDS_P1;SDS_P2;PMS_P1;PMS_P2;Temp;Humidity;BMP_temperature;BMP_pressure;BME280_temperature;BME280_humidity;BME280_pressure;Samples;Min_cycle;Max_cycle;Signal;HPM_P1;HPM_P2
2022/05/04 00:01:11;;;;;;;7.77;7.07;;;13.20;99.90;;;;;;5017959;28;20468;-76
2022/05/04 00:03:57;;;;;;;10.07;9.07;;;13.30;99.90;;;;;;5017250;28;20416;-76
2022/05/04 00:06:43;;;;;;;9.33;8.03;;;13.30;99.90;;;;;;5015931;28;20495;-77
2022/05/04 00:09:29;;;;;;;10.40;7.70;;;13.40;99.90;;;;;;5010173;28;20419;-76
2022/05/04 00:12:16;;;;;;;9.63;7.83;;;13.30;99.90;;;;;;5011420;28;20468;-76
2022/05/04 00:15:01;;;;;;;7.57;6.90;;;13.40;99.90;;;;;;5011303;28;20774;-76
2022/05/04 00:17:47;;;;;;;8.40;7.60;;;13.40;99.90;;;;;;5008785;28;20448;-77
2022/05/04 00:20:33;;;;;;;10.50;8.40;;;13.40;99.90;;;;;;4993909;28;20453;-76
2022/05/04 00:23:18;;;;;;;9.53;7.40;;;13.50;99.90;;;;;;5009771;28;20498;-76
2022/05/04 00:26:04;;;;;;;8.13;7.17;;;13.50;99.90;;;;;;5004844;28;20414;-76
2022/05/04 00:28:51;;;;;;;8.80;7.87;;;13.60;99.90;;;;;;5004769;28;20527;-76
2022/05/04 00:31:37;;;;;;;9.40;7.97;;;13.40;99.90;;;;;;5003291;28;20551;-77
2022/05/04 00:34:23;;;;;;;10.77;8.47;;;13.40;99.90;;;;;;5001289;28;20529;-77
2022/05/04 00:37:08;;;;;;;8.53;7.70;;;13.40;99.90;;;;;;5003159;28;20445;-76
2022/05/04 00:39:54;;;;;;;9.43;7.83;;;13.40;99.90;;;;;;5009627;28;20918;-76
2022/05/04 00:42:40;;;;;;;8.70;7.90;;;13.40;99.90;;;;;;5006768;28;20531;-76
2022/05/04 00:45:27;;;;;;;9.80;8.50;;;13.30;99.90;;;;;;5004048;28;20450;-76
2022/05/04 00:48:13;;;;;;;9.80;8.20;;;13.30;99.90;;;;;;4998099;28;20585;-76
2022/05/04 00:50:59;;;;;;;9.73;8.73;;;13.30;99.90;;;;;;5006287;28;20420;-77
2022/05/04 00:53:46;;;;;;;12.63;8.53;;;13.20;99.90;;;;;;5004384;28;20421;-76
2022/05/04 00:56:32;;;;;;;10.07;8.43;;;13.10;99.90;;;;;;5013232;28;20453;-77
2022/05/04 00:59:16;;;;;;;10.50;7.97;;;13.10;99.90;;;;;;5009482;28;20795;-76
2022/05/04 01:02:04;;;;;;;9.53;8.53;;;13.10;99.90;;;;;;5008471;28;20587;-77
2022/05/04 01:04:50;;;;;;;13.60;9.17;;;13.10;99.90;;;;;;5004314;28;20446;-76
2022/05/04 01:07:36;;;;;;;10.00;8.57;;;13.20;99.90;;;;;;5003216;28;20844;-76
2022/05/04 01:10:21;;;;;;;11.43;9.27;;;13.20;99.90;;;;;;5001767;28;20911;-76
2022/05/04 01:13:07;;;;;;;9.93;8.93;;;13.20;99.90;;;;;;5008748;28;20842;-76
2022/05/04 01:15:53;;;;;;;10.63;9.53;;;13.30;99.90;;;;;;5004472;28;20424;-76
2022/05/04 01:18:40;;;;;;;10.37;9.37;;;13.30;99.90;;;;;;5009102;28;20451;-76
2022/05/04 01:21:26;;;;;;;11.03;9.70;;;13.40;99.90;;;;;;5006254;28;20443;-76
2022/05/04 01:24:13;;;;;;;11.20;8.97;;;13.40;99.90;;;;;;5001502;28;20974;-77
2022/05/04 01:26:59;;;;;;;10.00;9.00;;;13.40;99.90;;;;;;5007969;28;20402;-77
2022/05/04 01:29:45;;;;;;;11.47;8.17;;;13.40;99.90;;;;;;5005763;28;20480;-76
2022/05/04 01:32:31;;;;;;;12.40;9.10;;;13.40;99.90;;;;;;5009634;28;20415;-76
2022/05/04 01:35:17;;;;;;;13.40;9.33;;;13.40;99.90;;;;;;5008456;28;20465;-77
2022/05/04 01:38:03;;;;;;;9.00;8.10;;;13.50;99.90;;;;;;5008323;28;20527;-76
2022/05/04 01:40:50;;;;;;;12.80;10.00;;;13.60;99.90;;;;;;5003933;28;20453;-76
2022/05/04 01:43:36;;;;;;;18.83;8.93;;;13.60;99.90;;;;;;4994955;28;20445;-77
2022/05/04 01:46:22;;;;;;;10.10;9.10;;;13.50;99.90;;;;;;5001356;28;20933;-76
2022/05/04 01:49:08;;;;;;;10.70;9.60;;;13.40;99.90;;;;;;5005069;28;20463;-76
2022/05/04 01:51:54;;;;;;;10.37;9.37;;;13.40;99.90;;;;;;5011128;28;20457;-76
2022/05/04 01:54:39;;;;;;;9.53;8.63;;;13.30;99.90;;;;;;5006653;28;20446;-77
2022/05/04 01:57:27;;;;;;;10.07;9.03;;;13.30;99.90;;;;;;5010966;28;20787;-77
2022/05/04 02:00:13;;;;;;;11.73;9.70;;;13.20;99.90;;;;;;5007851;28;20941;-76
2022/05/04 02:02:59;;;;;;;9.70;8.80;;;13.10;99.90;;;;;;5006342;28;20481;-76
2022/05/04 02:05:45;;;;;;;11.33;8.90;;;13.20;99.90;;;;;;5010203;28;20419;-76
2022/05/04 02:08:31;;;;;;;13.90;8.70;;;13.20;99.90;;;;;;5012575;28;20496;-76
2022/05/04 02:11:18;;;;;;;10.70;9.17;;;13.30;99.90;;;;;;5014249;28;20581;-76
2022/05/04 02:14:06;;;;;;;12.00;9.20;;;13.40;99.90;;;;;;5012723;28;20438;-76
2022/05/04 02:16:51;;;;;;;9.13;8.20;;;13.40;99.90;;;;;;5009996;28;20424;-77
2022/05/04 02:19:37;;;;;;;10.47;9.20;;;13.40;99.90;;;;;;5009196;28;20428;-76
2022/05/04 02:22:23;;;;;;;10.10;9.10;;;13.30;99.90;;;;;;5009817;28;20475;-77
2022/05/04 02:25:09;;;;;;;10.60;9.60;;;13.20;99.90;;;;;;5010803;28;20984;-76
2022/05/04 02:27:55;;;;;;;9.77;8.83;;;13.20;99.90;;;;;;5009992;28;20956;-76
2022/05/04 02:30:43;;;;;;;9.43;8.43;;;13.20;99.90;;;;;;5010616;28;20488;-77
2022/05/04 02:33:29;;;;;;;9.73;8.70;;;13.20;99.90;;;;;;5014733;28;20448;-76
2022/05/04 02:39:18;;;;;;;9.60;8.60;;;13.10;99.90;;;;;;5007722;28;20452;-77
2022/05/04 02:42:05;;;;;;;10.03;8.83;;;13.20;99.90;;;;;;5012795;28;20450;-76
2022/05/04 02:44:51;;;;;;;11.33;8.63;;;13.20;99.90;;;;;;5011334;28;21064;-76
2022/05/04 02:47:39;;;;;;;11.17;9.77;;;13.30;99.90;;;;;;5011316;28;20507;-77
2022/05/04 02:50:24;;;;;;;9.10;7.93;;;13.40;99.90;;;;;;5006698;28;20499;-76
2022/05/04 02:53:10;;;;;;;9.93;8.93;;;13.40;99.90;;;;;;5010012;28;20586;-76
2022/05/04 02:55:56;;;;;;;10.83;8.73;;;13.50;99.90;;;;;;5009721;28;20480;-77
2022/05/04 02:58:42;;;;;;;10.50;8.93;;;13.50;99.90;;;;;;5007389;28;20624;-77
2022/05/04 03:04:46;;;;;;;10.20;8.90;;;13.40;99.90;;;;;;4970283;28;20465;-76
2022/05/04 03:07:31;;;;;;;9.00;8.00;;;13.30;99.90;;;;;;4973934;28;20510;-76
2022/05/04 03:10:18;;;;;;;11.10;8.90;;;13.20;99.90;;;;;;4994810;28;20499;-76
2022/05/04 03:13:03;;;;;;;12.67;10.03;;;13.00;99.90;;;;;;4993492;28;20846;-76
2022/05/04 03:15:49;;;;;;;10.77;9.67;;;13.10;99.90;;;;;;5007978;28;20420;-77
2022/05/04 03:18:35;;;;;;;10.10;8.97;;;13.20;99.90;;;;;;5009816;28;20577;-76
2022/05/04 03:21:22;;;;;;;10.33;9.30;;;13.20;99.90;;;;;;5012089;28;20426;-76
2022/05/04 03:24:08;;;;;;;10.87;8.80;;;13.10;99.90;;;;;;5008864;28;20416;-76
2022/05/04 03:26:53;;;;;;;12.33;9.07;;;13.10;99.90;;;;;;5018788;28;20424;-76
2022/05/04 03:29:39;;;;;;;11.50;10.27;;;13.00;99.90;;;;;;5005891;28;20428;-77
2022/05/04 03:32:25;;;;;;;10.67;9.57;;;13.00;99.90;;;;;;5012368;28;20445;-76
2022/05/04 03:35:11;;;;;;;10.80;9.70;;;13.10;99.90;;;;;;5008474;28;20446;-76
2022/05/04 03:37:58;;;;;;;10.07;8.50;;;13.20;99.90;;;;;;5009397;28;20447;-77
2022/05/04 03:40:44;;;;;;;11.53;9.23;;;13.20;99.90;;;;;;5009744;28;20448;-76
2022/05/04 03:43:30;;;;;;;10.63;9.37;;;13.20;99.90;;;;;;5032006;28;20498;-76
2022/05/04 03:46:17;;;;;;;11.87;8.93;;;13.20;99.90;;;;;;5031896;28;20424;-76
2022/05/04 03:49:03;;;;;;;10.83;8.93;;;13.20;99.90;;;;;;5015282;28;20561;-76
2022/05/04 03:51:49;;;;;;;10.83;8.97;;;13.30;99.90;;;;;;5005513;28;20524;-76
2022/05/04 03:54:36;;;;;;;9.87;8.40;;;13.40;99.90;;;;;;5006841;28;20476;-76
2022/05/04 03:57:22;;;;;;;9.57;8.57;;;13.30;99.90;;;;;;5007889;28;20454;-76
2022/05/04 04:00:10;;;;;;;9.80;8.80;;;13.30;99.90;;;;;;5004011;28;20412;-76
2022/05/04 04:02:56;;;;;;;10.50;9.50;;;13.30;99.90;;;;;;5007188;28;20444;-76
2022/05/04 04:05:41;;;;;;;9.30;8.00;;;13.30;99.90;;;;;;5005272;28;20818;-76
2022/05/04 04:08:27;;;;;;;10.60;9.50;;;13.30;99.90;;;;;;4999981;28;20457;-76
2022/05/04 04:11:14;;;;;;;10.50;9.30;;;13.40;99.90;;;;;;4999849;28;20548;-76
2022/05/04 04:14:00;;;;;;;9.53;8.53;;;13.30;99.90;;;;;;5000131;28;20427;-76
2022/05/04 04:16:46;;;;;;;10.23;8.50;;;13.20;99.90;;;;;;5001994;28;20432;-76
2022/05/04 04:19:31;;;;;;;9.63;8.60;;;13.20;99.90;;;;;;5004817;28;20474;-76
2022/05/04 04:22:16;;;;;;;9.23;8.43;;;13.20;99.90;;;;;;5003580;28;20451;-76
2022/05/04 04:25:02;;;;;;;10.93;9.63;;;13.20;99.90;;;;;;4991627;28;20414;-76
2022/05/04 04:27:49;;;;;;;10.97;9.90;;;13.20;99.90;;;;;;5004561;28;20803;-76
2022/05/04 04:30:34;;;;;;;10.13;9.13;;;13.20;99.90;;;;;;5017269;28;20512;-77
2022/05/04 04:33:22;;;;;;;9.97;8.93;;;13.00;99.90;;;;;;5007654;28;20511;-76
2022/05/04 04:36:09;;;;;;;18.13;10.90;;;13.00;99.90;;;;;;5005693;28;20505;-77
2022/05/04 04:38:55;;;;;;;10.60;9.33;;;13.10;99.90;;;;;;5008872;28;20961;-76
2022/05/04 04:41:40;;;;;;;11.70;10.50;;;13.20;99.90;;;;;;5005044;28;20465;-76
2022/05/04 04:44:27;;;;;;;10.50;9.50;;;13.30;99.90;;;;;;5009647;28;20435;-77
2022/05/04 04:47:13;;;;;;;12.67;9.77;;;13.30;99.90;;;;;;5003630;28;20445;-76
2022/05/04 04:49:59;;;;;;;11.40;9.87;;;13.20;99.90;;;;;;5010496;28;20937;-76
2022/05/04 04:52:44;;;;;;;16.93;11.43;;;13.10;99.90;;;;;;5001005;28;20575;-76
2022/05/04 04:55:30;;;;;;;11.30;10.20;;;13.10;99.90;;;;;;5005028;28;20921;-76
2022/05/04 04:58:16;;;;;;;10.63;9.60;;;13.10;99.90;;;;;;5006209;28;20957;-76
2022/05/04 05:01:03;;;;;;;9.43;8.30;;;13.20;99.90;;;;;;5015396;28;20503;-77
2022/05/04 05:03:49;;;;;;;10.23;9.23;;;13.30;99.90;;;;;;5011265;28;20470;-76
2022/05/04 05:06:35;;;;;;;10.90;9.80;;;13.40;99.90;;;;;;4991675;28;20414;-76
2022/05/04 05:09:21;;;;;;;12.63;11.00;;;13.40;99.90;;;;;;5013362;28;20971;-76
2022/05/04 05:12:07;;;;;;;10.40;9.40;;;13.40;99.90;;;;;;5008669;28;20451;-77
2022/05/04 05:17:57;;;;;;;10.10;9.00;;;13.40;99.90;;;;;;5019982;28;20423;-76
2022/05/04 05:20:43;;;;;;;10.03;9.03;;;13.40;99.90;;;;;;5011890;28;20429;-76
2022/05/04 05:23:29;;;;;;;10.87;9.77;;;13.50;99.90;;;;;;5009037;28;20486;-77
2022/05/04 05:26:15;;;;;;;10.83;9.60;;;13.50;99.90;;;;;;5006765;28;20423;-76
2022/05/04 05:29:00;;;;;;;11.80;10.60;;;13.50;99.90;;;;;;5005431;28;20971;-76
2022/05/04 05:31:46;;;;;;;10.67;9.53;;;13.50;99.90;;;;;;5008365;28;20456;-77
2022/05/04 05:34:34;;;;;;;11.73;10.50;;;13.50;99.90;;;;;;5014423;28;20428;-76
2022/05/04 05:37:21;;;;;;;11.73;9.90;;;13.60;99.90;;;;;;5006004;28;20449;-76
2022/05/04 05:40:07;;;;;;;11.93;10.43;;;13.60;99.90;;;;;;5015382;28;20427;-76
2022/05/04 05:42:52;;;;;;;10.97;9.80;;;13.70;99.90;;;;;;5012524;28;20821;-76
2022/05/04 05:45:38;;;;;;;11.17;9.67;;;13.70;99.90;;;;;;5010629;28;20420;-76
2022/05/04 05:48:24;;;;;;;11.20;10.10;;;13.70;99.90;;;;;;5011058;28;20608;-76
2022/05/04 05:51:11;;;;;;;10.90;9.80;;;13.70;99.90;;;;;;5008179;28;20441;-76
2022/05/04 05:53:56;;;;;;;12.43;10.07;;;13.80;99.90;;;;;;5011403;28;20524;-76
2022/05/04 05:56:42;;;;;;;10.23;9.23;;;13.80;99.90;;;;;;5011335;28;20491;-77
2022/05/04 05:59:28;;;;;;;9.83;8.87;;;13.80;99.90;;;;;;5014451;28;20415;-77
2022/05/04 06:02:14;;;;;;;12.10;10.30;;;13.80;99.90;;;;;;5008606;28;21289;-76
2022/05/04 06:05:00;;;;;;;11.53;10.43;;;13.90;99.90;;;;;;5008338;28;20513;-76
2022/05/04 06:07:46;;;;;;;12.10;10.90;;;13.90;99.90;;;;;;5007110;28;20584;-76
2022/05/04 06:10:32;;;;;;;13.57;12.17;;;13.90;99.90;;;;;;5007396;28;20449;-76
2022/05/04 06:13:19;;;;;;;12.87;11.57;;;13.90;99.90;;;;;;5009235;28;20972;-76
2022/05/04 06:16:05;;;;;;;13.60;12.20;;;13.90;99.90;;;;;;5013460;28;20503;-76
2022/05/04 06:18:50;;;;;;;11.63;10.53;;;13.90;99.90;;;;;;5019681;28;20449;-75
2022/05/04 06:21:36;;;;;;;11.70;10.33;;;13.90;99.90;;;;;;5007735;28;20465;-75
2022/05/04 06:24:23;;;;;;;15.73;10.60;;;13.90;99.90;;;;;;5011476;28;20509;-75
2022/05/04 06:27:09;;;;;;;13.23;11.83;;;14.00;99.90;;;;;;5007559;28;20452;-75
2022/05/04 06:36:01;;;;;;;15.53;11.07;;;14.20;99.90;;;;;;5008114;28;20444;-77
2022/05/04 06:38:47;;;;;;;12.07;10.63;;;14.10;99.90;;;;;;5010616;28;20423;-77
2022/05/04 06:41:35;;;;;;;12.97;11.67;;;14.20;99.90;;;;;;5003761;28;20465;-76
2022/05/04 06:44:20;;;;;;;13.47;12.23;;;14.20;99.90;;;;;;5008844;28;20471;-76
2022/05/04 06:47:06;;;;;;;14.20;12.20;;;14.30;99.90;;;;;;5006203;28;20841;-77
2022/05/04 06:49:52;;;;;;;15.00;13.40;;;14.40;99.90;;;;;;5003986;28;20428;-76
2022/05/04 06:52:38;;;;;;;16.90;13.13;;;14.40;99.90;;;;;;5009918;28;20438;-76
2022/05/04 06:55:24;;;;;;;14.77;13.20;;;14.40;99.90;;;;;;5003430;28;21027;-77
2022/05/04 06:58:10;;;;;;;17.70;13.77;;;14.50;99.90;;;;;;5011055;28;20495;-77
2022/05/04 07:00:56;;;;;;;13.83;12.33;;;14.50;99.90;;;;;;5007363;28;20420;-76
2022/05/04 07:03:42;;;;;;;15.33;13.77;;;14.50;99.90;;;;;;5012917;28;20989;-76
2022/05/04 07:06:28;;;;;;;13.67;12.30;;;14.60;99.90;;;;;;5012269;28;20439;-76
2022/05/04 07:09:13;;;;;;;14.73;12.80;;;14.70;99.90;;;;;;5019483;28;20399;-76
2022/05/04 07:11:59;;;;;;;15.00;13.50;;;14.70;99.90;;;;;;5012472;28;20461;-77
2022/05/04 07:14:46;;;;;;;15.17;13.67;;;14.70;99.90;;;;;;5022738;28;20438;-76
2022/05/04 07:17:32;;;;;;;19.13;13.27;;;14.80;99.90;;;;;;5007414;28;20468;-77
2022/05/04 07:20:18;;;;;;;14.00;12.60;;;14.80;99.90;;;;;;5006596;28;20428;-77
2022/05/04 07:23:03;;;;;;;21.83;13.43;;;14.90;99.90;;;;;;5007388;28;20538;-77
2022/05/04 07:25:49;;;;;;;14.53;12.97;;;15.00;99.90;;;;;;5003687;28;20478;-77
2022/05/04 07:28:35;;;;;;;13.50;11.47;;;15.00;99.90;;;;;;5007141;28;20428;-77
2022/05/04 07:31:22;;;;;;;17.70;12.30;;;15.10;99.90;;;;;;5006559;28;20573;-76
2022/05/04 07:34:08;;;;;;;15.67;13.17;;;15.10;99.90;;;;;;5008097;28;20441;-77
2022/05/04 07:36:54;;;;;;;16.53;14.83;;;15.10;99.90;;;;;;5008749;28;20527;-76
2022/05/04 07:42:43;;;;;;;19.73;14.53;;;15.30;99.90;;;;;;5001481;28;20461;-76
2022/05/04 07:45:28;;;;;;;19.60;14.40;;;15.40;99.90;;;;;;5003578;28;20465;-77
2022/05/04 07:48:16;;;;;;;15.33;13.70;;;15.50;99.90;;;;;;5010089;28;20547;-76
2022/05/04 07:51:01;;;;;;;14.27;12.80;;;15.60;99.90;;;;;;5008816;28;20399;-76
2022/05/04 07:53:47;;;;;;;15.20;13.40;;;15.70;99.90;;;;;;5012377;28;20400;-77
2022/05/04 07:56:33;;;;;;;14.50;12.87;;;15.80;99.90;;;;;;5003356;28;20588;-76
2022/05/04 07:59:18;;;;;;;14.17;12.87;;;15.80;99.90;;;;;;5009138;28;20404;-77
2022/05/04 08:05:09;;;;;;;17.57;12.40;;;16.20;99.90;;;;;;5008705;28;20488;-77
2022/05/04 08:07:55;;;;;;;14.10;12.53;;;16.40;99.90;;;;;;5011368;28;20412;-76
2022/05/04 08:10:41;;;;;;;17.00;12.20;;;16.60;99.90;;;;;;5000552;28;20919;-76
2022/05/04 08:13:27;;;;;;;15.30;12.50;;;16.70;99.90;;;;;;4997885;28;20487;-76
2022/05/04 08:16:13;;;;;;;16.33;12.27;;;16.80;99.90;;;;;;5006957;28;20947;-77
2022/05/04 08:19:00;;;;;;;13.70;11.90;;;16.70;99.90;;;;;;5009859;28;20438;-77
2022/05/04 08:21:47;;;;;;;14.13;12.73;;;16.70;99.90;;;;;;5011962;28;20994;-77
2022/05/04 08:24:33;;;;;;;14.73;12.10;;;16.70;99.90;;;;;;5008791;28;20527;-77
2022/05/04 08:27:19;;;;;;;15.27;12.10;;;16.80;99.90;;;;;;5007006;28;20953;-76
2022/05/04 08:30:06;;;;;;;16.33;14.67;;;16.90;99.90;;;;;;5009361;28;20419;-76
2022/05/04 08:32:52;;;;;;;13.43;12.10;;;17.00;99.90;;;;;;5007524;28;20608;-74
2022/05/04 08:35:38;;;;;;;13.70;12.30;;;17.10;99.90;;;;;;5009573;28;20502;-74
2022/05/04 08:38:25;;;;;;;14.50;13.00;;;17.30;99.90;;;;;;5003328;28;20499;-74
2022/05/04 08:41:11;;;;;;;13.83;12.53;;;17.30;99.90;;;;;;5003100;28;20953;-74
2022/05/04 08:43:58;;;;;;;14.37;12.87;;;17.40;99.90;;;;;;5008041;28;20448;-74
2022/05/04 08:46:45;;;;;;;16.97;11.93;;;17.60;99.90;;;;;;5006913;28;20954;-74
2022/05/04 08:49:31;;;;;;;12.70;11.43;;;17.60;99.90;;;;;;4999302;28;20442;-74
2022/05/04 08:52:18;;;;;;;11.43;10.33;;;17.70;99.90;;;;;;5006645;28;20473;-74
2022/05/04 08:55:08;;;;;;;15.40;11.30;;;17.80;99.90;;;;;;5004654;28;20515;-74
2022/05/04 08:57:55;;;;;;;13.30;11.80;;;17.90;99.90;;;;;;5004706;28;20420;-74
2022/05/04 09:00:40;;;;;;;13.50;12.10;;;18.00;99.90;;;;;;5010628;28;20427;-74
2022/05/04 09:03:28;;;;;;;19.90;11.00;;;18.20;99.90;;;;;;5007286;28;20706;-74
2022/05/04 09:06:25;;;;;;;15.20;11.00;;;18.30;99.90;;;;;;5011607;28;20445;-74
2022/05/04 09:09:11;;;;;;;17.53;10.50;;;18.30;99.90;;;;;;5010378;28;20576;-74
2022/05/04 09:12:02;;;;;;;11.63;10.43;;;18.30;99.90;;;;;;5013133;28;20472;-73
2022/05/04 09:14:48;;;;;;;12.80;11.40;;;18.40;99.90;;;;;;5009667;28;20488;-74
2022/05/04 09:17:33;;;;;;;12.10;10.77;;;18.40;99.90;;;;;;5009093;28;20603;-76
2022/05/04 09:23:23;;;;;;;13.03;11.73;;;18.70;99.90;;;;;;5030302;28;20556;-76
2022/05/04 09:26:15;;;;;;;12.90;10.57;;;18.80;99.90;;;;;;5034671;28;20889;-76
2022/05/04 09:29:05;;;;;;;14.27;11.43;;;18.90;99.90;;;;;;5023713;28;20429;-76
2022/05/04 09:31:53;;;;;;;15.00;11.23;;;18.90;99.90;;;;;;5017591;28;20506;-76
2022/05/04 09:34:38;;;;;;;15.20;12.00;;;19.00;99.90;;;;;;5026949;28;20777;-76
2022/05/04 09:46:53;;;;;;;11.20;10.10;;;19.60;99.90;;;;;;4994859;28;20517;-76
2022/05/04 09:49:40;;;;;;;12.07;10.87;;;19.70;99.90;;;;;;5006457;28;20893;-76
2022/05/04 09:52:26;;;;;;;14.43;11.60;;;19.70;97.20;;;;;;5006866;28;20474;-76
2022/05/04 09:55:20;;;;;;;11.83;10.40;;;19.70;93.00;;;;;;5011458;28;20531;-75
2022/05/04 09:58:06;;;;;;;12.00;10.17;;;19.60;95.00;;;;;;5005988;28;20436;-76
2022/05/04 10:00:52;;;;;;;14.83;10.47;;;19.70;94.60;;;;;;5009465;28;20460;-76
2022/05/04 10:03:40;;;;;;;11.60;10.40;;;19.80;92.40;;;;;;5007176;28;21025;-76
2022/05/04 10:06:26;;;;;;;12.83;11.30;;;19.70;91.50;;;;;;5005319;28;20548;-76
2022/05/04 10:09:12;;;;;;;12.20;10.90;;;19.70;91.10;;;;;;5010092;28;20416;-76
2022/05/04 10:11:59;;;;;;;12.03;10.73;;;19.60;90.70;;;;;;5008969;28;20604;-76
2022/05/04 10:14:46;;;;;;;14.03;11.70;;;19.60;91.50;;;;;;5002686;28;20858;-76
2022/05/04 10:17:33;;;;;;;12.60;11.30;;;19.40;90.70;;;;;;5003711;28;20432;-77
2022/05/04 10:20:22;;;;;;;13.50;12.10;;;19.30;91.00;;;;;;5005075;28;20428;-76
2022/05/04 10:23:13;;;;;;;12.97;11.67;;;19.10;90.90;;;;;;5008764;28;20464;-76
2022/05/04 10:25:59;;;;;;;15.90;12.60;;;19.00;93.00;;;;;;5003920;28;20778;-76
2022/05/04 10:30:30;;;;;;;13.73;12.13;;;18.80;91.90;;;;;;5007283;28;21557;-74
2022/05/04 10:31:56;;;;;;;15.70;13.00;;;18.50;92.00;;;;;;5007069;28;20484;-75
2022/05/04 10:34:43;;;;;;;12.90;11.50;;;18.30;92.30;;;;;;5007609;28;20484;-75
2022/05/04 10:37:31;;;;;;;12.10;10.60;;;18.30;92.80;;;;;;5013632;28;20499;-76
2022/05/04 10:40:23;;;;;;;12.93;11.63;;;18.20;92.70;;;;;;5011873;28;20517;-77
2022/05/04 10:43:11;;;;;;;18.03;11.03;;;18.20;91.50;;;;;;5010133;28;20984;-76
2022/05/04 10:46:04;;;;;;;12.80;11.40;;;18.20;91.70;;;;;;5009351;28;20444;-76
2022/05/04 10:48:53;;;;;;;11.57;9.50;;;18.40;92.60;;;;;;5007394;28;20420;-76
2022/05/04 10:51:39;;;;;;;12.80;10.33;;;18.70;95.40;;;;;;5012248;28;20447;-77
2022/05/04 10:54:29;;;;;;;11.70;10.53;;;19.10;93.60;;;;;;5004207;28;20789;-76
2022/05/04 10:57:15;;;;;;;14.53;11.50;;;19.50;91.70;;;;;;5004437;28;20487;-76
2022/05/04 11:00:04;;;;;;;17.30;12.33;;;19.80;83.70;;;;;;5008251;28;20923;-77
2022/05/04 11:02:50;;;;;;;13.10;11.77;;;19.90;77.90;;;;;;5001794;28;20466;-76
2022/05/04 11:05:46;;;;;;;13.70;11.80;;;20.10;79.40;;;;;;5003183;28;20468;-76
2022/05/04 11:08:35;;;;;;;11.63;10.53;;;20.40;76.80;;;;;;5005451;28;20428;-76
2022/05/04 11:11:23;;;;;;;13.27;11.57;;;20.50;74.60;;;;;;5011523;28;20465;-77
2022/05/04 11:14:11;;;;;;;14.23;10.43;;;20.70;71.90;;;;;;5006960;28;20437;-77
2022/05/04 11:16:58;;;;;;;11.50;10.07;;;20.90;71.90;;;;;;5001980;28;20462;-77
2022/05/04 11:19:46;;;;;;;10.90;9.90;;;21.10;66.70;;;;;;5003613;28;20524;-77
2022/05/04 11:22:32;;;;;;;12.20;10.00;;;21.40;63.90;;;;;;5006421;28;20448;-77
2022/05/04 11:25:18;;;;;;;10.30;8.63;;;21.50;67.30;;;;;;5004146;28;20550;-77
2022/05/04 11:28:07;;;;;;;11.30;9.80;;;21.40;62.00;;;;;;5006290;28;20444;-76
2022/05/04 11:30:53;;;;;;;10.50;9.40;;;21.40;62.20;;;;;;5001374;28;20436;-77
2022/05/04 11:33:40;;;;;;;12.03;9.50;;;21.10;65.10;;;;;;5002771;28;20542;-77
2022/05/04 11:36:27;;;;;;;14.10;9.57;;;21.00;65.70;;;;;;5009347;28;20425;-77
2022/05/04 11:39:15;;;;;;;11.40;9.47;;;21.00;63.70;;;;;;5005612;28;20427;-77
2022/05/04 11:42:02;;;;;;;10.37;8.43;;;21.00;63.70;;;;;;5006033;28;20832;-77
2022/05/04 11:44:51;;;;;;;13.23;8.90;;;20.70;62.20;;;;;;5009135;28;20624;-77
2022/05/04 11:47:37;;;;;;;9.93;8.93;;;20.50;65.30;;;;;;5009763;28;20457;-77
2022/05/04 11:50:23;;;;;;;11.53;9.47;;;20.30;65.20;;;;;;5006388;28;20423;-77
2022/05/04 11:53:09;;;;;;;10.50;9.50;;;20.10;63.40;;;;;;5008287;28;20609;-76
2022/05/04 11:55:54;;;;;;;11.10;10.00;;;20.10;64.70;;;;;;5007180;28;20449;-77
2022/05/04 11:58:42;;;;;;;15.90;10.10;;;19.90;66.30;;;;;;5003522;28;20908;-76
2022/05/04 12:01:29;;;;;;;11.13;9.40;;;19.80;65.30;;;;;;5009808;28;20431;-77
2022/05/04 12:04:15;;;;;;;13.40;8.17;;;19.90;66.60;;;;;;5006179;28;20485;-77
2022/05/04 12:07:01;;;;;;;17.43;9.67;;;20.00;66.50;;;;;;5007655;28;20910;-77
2022/05/04 12:09:47;;;;;;;19.00;10.73;;;20.00;64.50;;;;;;5010519;28;20545;-77
2022/05/04 12:12:33;;;;;;;12.60;9.37;;;20.10;62.10;;;;;;5018404;28;20587;-77
2022/05/04 12:15:22;;;;;;;12.40;10.00;;;20.30;65.20;;;;;;5018752;28;20426;-77
2022/05/04 12:18:13;;;;;;;9.90;8.07;;;20.60;60.50;;;;;;5017150;28;20476;-77
2022/05/04 12:21:05;;;;;;;12.07;9.17;;;20.90;61.30;;;;;;5013680;28;20440;-77
2022/05/04 12:23:55;;;;;;;9.93;7.90;;;21.30;59.30;;;;;;5014722;28;20526;-77
2022/05/04 12:26:41;;;;;;;8.10;7.33;;;21.60;56.00;;;;;;5013425;28;20423;-77
2022/05/04 12:35:59;;;;;;;9.40;7.47;;;21.80;49.40;;;;;;4956600;28;20532;-77
2022/05/04 12:38:49;;;;;;;11.67;7.83;;;22.10;56.90;;;;;;5016085;28;20456;-77
2022/05/04 12:41:35;;;;;;;8.30;7.37;;;22.30;49.50;;;;;;5010750;28;20974;-76
2022/05/04 12:44:21;;;;;;;9.10;7.77;;;22.40;48.20;;;;;;5012376;28;20562;-77
2022/05/04 12:47:07;;;;;;;11.10;7.83;;;22.70;50.10;;;;;;5015987;28;20454;-77
2022/05/04 12:49:55;;;;;;;8.97;8.07;;;22.90;46.40;;;;;;5018038;28;20481;-76
2022/05/04 12:52:42;;;;;;;11.43;7.63;;;22.80;43.70;;;;;;5017220;28;20465;-77
2022/05/04 12:58:27;;;;;;;11.20;6.87;;;22.90;46.20;;;;;;5015743;28;20600;-77
2022/05/04 13:01:13;;;;;;;6.83;6.13;;;23.20;44.40;;;;;;5017271;28;20935;-77
2022/05/04 13:04:00;;;;;;;7.67;6.57;;;23.40;41.80;;;;;;5020439;28;20460;-76
2022/05/04 13:06:46;;;;;;;9.17;6.70;;;23.70;44.50;;;;;;5017245;28;20457;-76
2022/05/04 13:09:34;;;;;;;6.73;6.03;;;23.90;43.70;;;;;;5006184;28;20465;-76
2022/05/04 13:12:20;;;;;;;6.90;6.20;;;24.10;43.70;;;;;;5013975;28;20504;-77
2022/05/04 13:15:06;;;;;;;8.67;5.83;;;24.40;42.50;;;;;;5015011;28;20429;-75
2022/05/04 13:17:52;;;;;;;6.30;5.70;;;24.50;40.80;;;;;;5014288;28;21411;-76
2022/05/04 13:20:39;;;;;;;9.57;4.97;;;24.70;39.70;;;;;;5020141;28;20481;-76
2022/05/04 13:23:25;;;;;;;12.60;6.13;;;24.80;37.70;;;;;;5017410;28;20461;-77
2022/05/04 13:26:14;;;;;;;6.07;5.47;;;24.80;40.30;;;;;;5016926;28;20477;-77
2022/05/04 13:28:59;;;;;;;7.20;5.33;;;25.00;37.90;;;;;;5019886;28;20453;-76
2022/05/04 13:31:45;;;;;;;7.03;5.80;;;25.10;36.60;;;;;;5015868;28;20474;-77
2022/05/04 13:34:32;;;;;;;9.33;6.27;;;25.10;36.10;;;;;;5022183;28;20469;-76
2022/05/04 13:37:17;;;;;;;7.83;6.70;;;24.40;37.30;;;;;;5018227;28;20480;-76
2022/05/04 13:40:04;;;;;;;9.30;5.60;;;24.50;37.80;;;;;;5024031;28;20696;-77
2022/05/04 13:42:54;;;;;;;10.07;7.00;;;24.20;35.90;;;;;;5023179;28;20524;-77
2022/05/04 13:45:40;;;;;;;8.30;5.60;;;24.00;36.40;;;;;;5023765;28;20548;-76
2022/05/04 13:48:25;;;;;;;6.40;5.23;;;24.30;40.00;;;;;;5021760;28;20818;-77
2022/05/04 13:54:14;;;;;;;7.93;5.07;;;24.60;37.50;;;;;;5021286;28;20441;-76
2022/05/04 13:57:00;;;;;;;7.90;6.30;;;24.80;34.90;;;;;;5016322;28;20575;-77
2022/05/04 13:59:48;;;;;;;9.00;6.40;;;25.10;39.30;;;;;;5010616;28;20442;-76
2022/05/04 14:02:34;;;;;;;7.77;6.57;;;25.20;42.10;;;;;;5016756;28;20439;-76
2022/05/04 14:05:20;;;;;;;8.97;6.30;;;25.20;39.40;;;;;;5013452;28;20474;-77
2022/05/04 14:08:07;;;;;;;15.67;6.40;;;25.10;40.60;;;;;;5014927;28;21222;-76
2022/05/04 14:10:57;;;;;;;7.27;5.87;;;25.10;40.20;;;;;;5027557;28;20518;-76
2022/05/04 14:13:45;;;;;;;8.00;6.57;;;25.20;42.30;;;;;;5018784;28;20489;-76
2022/05/04 14:16:31;;;;;;;11.90;5.73;;;25.30;39.30;;;;;;5012967;28;20520;-77
2022/05/04 14:19:17;;;;;;;6.40;5.77;;;25.30;40.90;;;;;;5016151;28;20475;-77
2022/05/04 14:22:03;;;;;;;6.00;5.40;;;25.50;40.10;;;;;;5015921;28;20555;-77
2022/05/04 14:24:49;;;;;;;6.27;4.97;;;25.50;37.70;;;;;;5016194;28;20515;-77
2022/05/04 14:27:35;;;;;;;6.43;5.70;;;25.60;37.00;;;;;;5010147;28;20421;-77
2022/05/04 14:30:21;;;;;;;10.30;5.97;;;25.60;36.70;;;;;;5015443;28;20426;-77
2022/05/04 14:33:08;;;;;;;6.70;5.70;;;25.40;35.90;;;;;;5014430;28;20456;-77
2022/05/04 14:35:54;;;;;;;9.00;5.90;;;25.30;36.20;;;;;;5016238;28;20468;-76
2022/05/04 14:38:39;;;;;;;8.40;5.63;;;25.30;38.20;;;;;;5019724;28;20464;-76
2022/05/04 14:41:26;;;;;;;11.60;5.33;;;25.30;38.90;;;;;;5018595;28;20516;-77
2022/05/04 14:44:12;;;;;;;8.30;5.93;;;25.30;39.80;;;;;;5014869;28;20457;-77
2022/05/04 14:46:57;;;;;;;7.63;5.97;;;25.30;38.30;;;;;;5010936;28;20945;-76
2022/05/04 14:49:45;;;;;;;7.20;5.80;;;25.30;39.20;;;;;;5015122;28;20443;-77
2022/05/04 14:52:31;;;;;;;7.77;6.10;;;25.40;38.90;;;;;;5015504;28;20914;-77
2022/05/04 14:55:17;;;;;;;10.70;5.83;;;25.30;38.30;;;;;;5015229;28;20520;-76
2022/05/04 14:58:03;;;;;;;9.23;6.20;;;25.30;38.40;;;;;;5015053;28;20523;-76
2022/05/04 15:00:51;;;;;;;7.70;5.60;;;25.40;37.40;;;;;;5013962;28;20445;-76